sensor_id;sensor_type;location;lat;lon;timestamp;P1;durP1;ratioP1;P2;durP2;ratioP2
1010;SDS011;494;48.744;10.106;2023-02-03T03:25:56;8.80;;;4.07;;
1010;SDS011;494;48.744;10.106;2023-02-03T03:28:53;10.37;;;4.23;;
1010;SDS011;494;48.744;10.106;2023-02-03T04:26:54;7.53;;;2.23;;
1010;SDS011;494;48.744;10.106;2023-02-03T04:30:04;6.80;;;2.37;;
1010;SDS011;494;48.744;10.106;2023-02-03T04:34:26;7.00;;;2.30;;
1010;SDS011;494;48.744;10.106;2023-02-03T06:34:47;6.63;;;1.80;;
1010;SDS011;494;48.744;10.106;2023-02-03T06:37:16;6.17;;;1.80;;
1010;SDS011;494;48.744;10.106;2023-02-03T06:39:58;6.60;;;2.20;;
1010;SDS011;494;48.744;10.106;2023-02-03T06:42:27;5.93;;;1.77;;
1010;SDS011;494;48.744;10.106;2023-02-03T06:44:56;6.80;;;2.10;;
1010;SDS011;494;48.744;10.106;2023-02-03T06:47:27;6.70;;;2.20;;
1010;SDS011;494;48.744;10.106;2023-02-03T06:49:56;6.80;;;2.20;;
1010;SDS011;494;48.744;10.106;2023-02-03T06:52:25;6.10;;;1.70;;
1010;SDS011;494;48.744;10.106;2023-02-03T06:54:53;5.93;;;1.77;;
1010;SDS011;494;48.744;10.106;2023-02-03T06:57:22;6.93;;;2.20;;
1010;SDS011;494;48.744;10.106;2023-02-03T06:59:51;6.60;;;2.27;;
1010;SDS011;494;48.744;10.106;2023-02-03T07:02:20;6.13;;;2.03;;
1010;SDS011;494;48.744;10.106;2023-02-03T07:04:50;6.83;;;2.17;;
1010;SDS011;494;48.744;10.106;2023-02-03T07:07:19;7.20;;;2.10;;
1010;SDS011;494;48.744;10.106;2023-02-03T07:09:48;7.23;;;1.90;;
1010;SDS011;494;48.744;10.106;2023-02-03T07:12:17;7.33;;;2.33;;
1010;SDS011;494;48.744;10.106;2023-02-03T07:14:45;7.40;;;2.70;;
1010;SDS011;494;48.744;10.106;2023-02-03T07:17:14;6.57;;;2.30;;
1010;SDS011;494;48.744;10.106;2023-02-03T07:19:43;8.43;;;2.77;;
1010;SDS011;494;48.744;10.106;2023-02-03T07:22:13;7.83;;;2.40;;
1010;SDS011;494;48.744;10.106;2023-02-03T07:24:42;6.73;;;2.60;;
1010;SDS011;494;48.744;10.106;2023-02-03T07:27:10;7.13;;;2.17;;
1010;SDS011;494;48.744;10.106;2023-02-03T07:29:39;7.50;;;2.80;;
1010;SDS011;494;48.744;10.106;2023-02-03T07:32:08;6.60;;;2.23;;
1010;SDS011;494;48.744;10.106;2023-02-03T07:34:36;8.00;;;2.30;;
1010;SDS011;494;48.744;10.106;2023-02-03T07:37:05;6.60;;;2.40;;
1010;SDS011;494;48.744;10.106;2023-02-03T07:39:35;8.40;;;2.60;;
1010;SDS011;494;48.744;10.106;2023-02-03T07:42:04;7.47;;;2.50;;
1010;SDS011;494;48.744;10.106;2023-02-03T07:44:33;6.67;;;2.10;;
1010;SDS011;494;48.744;10.106;2023-02-03T07:47:02;6.80;;;2.20;;
1010;SDS011;494;48.744;10.106;2023-02-03T07:49:30;8.20;;;2.20;;
1010;SDS011;494;48.744;10.106;2023-02-03T07:51:59;8.73;;;2.37;;
1010;SDS011;494;48.744;10.106;2023-02-03T07:54:28;6.70;;;2.10;;
1010;SDS011;494;48.744;10.106;2023-02-03T07:56:59;7.10;;;2.10;;
1010;SDS011;494;48.744;10.106;2023-02-03T07:59:28;8.13;;;2.00;;
1010;SDS011;494;48.744;10.106;2023-02-03T08:01:56;6.70;;;2.13;;
1010;SDS011;494;48.744;10.106;2023-02-03T08:04:25;8.10;;;2.73;;
1010;SDS011;494;48.744;10.106;2023-02-03T08:06:54;7.60;;;2.10;;
1010;SDS011;494;48.744;10.106;2023-02-03T08:09:23;6.80;;;2.30;;
1010;SDS011;494;48.744;10.106;2023-02-03T08:11:52;6.30;;;2.03;;
1010;SDS011;494;48.744;10.106;2023-02-03T08:14:22;8.20;;;2.10;;
1010;SDS011;494;48.744;10.106;2023-02-03T08:16:50;9.70;;;2.40;;
1010;SDS011;494;48.744;10.106;2023-02-03T08:19:20;8.87;;;2.53;;
1010;SDS011;494;48.744;10.106;2023-02-03T08:21:48;6.40;;;2.10;;
1010;SDS011;494;48.744;10.106;2023-02-03T08:24:17;8.03;;;2.80;;
1010;SDS011;494;48.744;10.106;2023-02-03T08:26:46;8.00;;;2.43;;
1010;SDS011;494;48.744;10.106;2023-02-03T08:29:14;8.67;;;3.10;;
1010;SDS011;494;48.744;10.106;2023-02-03T08:31:45;6.70;;;2.17;;
1010;SDS011;494;48.744;10.106;2023-02-03T08:34:14;6.60;;;2.37;;
1010;SDS011;494;48.744;10.106;2023-02-03T08:36:43;8.57;;;2.40;;
1010;SDS011;494;48.744;10.106;2023-02-03T08:39:12;8.80;;;2.50;;
1010;SDS011;494;48.744;10.106;2023-02-03T08:41:40;8.00;;;2.47;;
1010;SDS011;494;48.744;10.106;2023-02-03T08:44:09;6.50;;;2.03;;
1010;SDS011;494;48.744;10.106;2023-02-03T08:46:38;9.13;;;2.40;;
1010;SDS011;494;48.744;10.106;2023-02-03T08:49:11;7.70;;;2.40;;
1010;SDS011;494;48.744;10.106;2023-02-03T08:51:39;6.47;;;2.00;;
1010;SDS011;494;48.744;10.106;2023-02-03T08:54:09;6.70;;;1.90;;
1010;SDS011;494;48.744;10.106;2023-02-03T08:56:38;7.00;;;2.30;;
1010;SDS011;494;48.744;10.106;2023-02-03T08:59:08;6.90;;;1.83;;
1010;SDS011;494;48.744;10.106;2023-02-03T09:01:37;7.37;;;2.10;;
1010;SDS011;494;48.744;10.106;2023-02-03T09:04:11;7.03;;;2.00;;
1010;SDS011;494;48.744;10.106;2023-02-03T09:06:43;6.27;;;2.10;;
1010;SDS011;494;48.744;10.106;2023-02-03T09:09:13;7.43;;;2.20;;
1010;SDS011;494;48.744;10.106;2023-02-03T09:11:42;6.00;;;1.80;;
1010;SDS011;494;48.744;10.106;2023-02-03T09:14:11;6.40;;;1.90;;
1010;SDS011;494;48.744;10.106;2023-02-03T09:16:40;5.90;;;1.57;;
1010;SDS011;494;48.744;10.106;2023-02-03T09:19:08;6.47;;;1.90;;
1010;SDS011;494;48.744;10.106;2023-02-03T09:21:40;5.90;;;1.60;;
1010;SDS011;494;48.744;10.106;2023-02-03T09:24:13;6.27;;;1.97;;
1010;SDS011;494;48.744;10.106;2023-02-03T09:26:42;11.37;;;3.87;;
1010;SDS011;494;48.744;10.106;2023-02-03T09:29:11;5.80;;;1.70;;
1010;SDS011;494;48.744;10.106;2023-02-03T09:31:39;9.10;;;2.80;;
1010;SDS011;494;48.744;10.106;2023-02-03T09:34:09;6.20;;;1.80;;
1010;SDS011;494;48.744;10.106;2023-02-03T09:36:39;6.93;;;2.13;;
1010;SDS011;494;48.744;10.106;2023-02-03T09:39:08;6.60;;;2.00;;
1010;SDS011;494;48.744;10.106;2023-02-03T09:41:50;7.80;;;2.80;;
1010;SDS011;494;48.744;10.106;2023-02-03T09:44:53;6.13;;;2.03;;
1010;SDS011;494;48.744;10.106;2023-02-03T09:47:38;6.30;;;1.93;;
1010;SDS011;494;48.744;10.106;2023-02-03T09:50:11;6.73;;;1.90;;
1010;SDS011;494;48.744;10.106;2023-02-03T09:52:47;6.87;;;2.40;;
1010;SDS011;494;48.744;10.106;2023-02-03T09:55:25;7.27;;;2.57;;
1010;SDS011;494;48.744;10.106;2023-02-03T09:58:02;6.87;;;2.20;;
1010;SDS011;494;48.744;10.106;2023-02-03T10:00:39;7.00;;;2.90;;
1010;SDS011;494;48.744;10.106;2023-02-03T10:03:13;7.30;;;2.03;;
1010;SDS011;494;48.744;10.106;2023-02-03T10:08:54;9.23;;;3.83;;
1010;SDS011;494;48.744;10.106;2023-02-03T10:11:53;6.93;;;2.20;;
1010;SDS011;494;48.744;10.106;2023-02-03T10:15:02;7.70;;;2.97;;
1010;SDS011;494;48.744;10.106;2023-02-03T10:17:54;8.90;;;3.63;;
1010;SDS011;494;48.744;10.106;2023-02-03T10:20:30;8.93;;;3.40;;
1010;SDS011;494;48.744;10.106;2023-02-03T10:23:11;6.87;;;2.23;;
1010;SDS011;494;48.744;10.106;2023-02-03T10:25:51;6.30;;;1.97;;
1010;SDS011;494;48.744;10.106;2023-02-03T10:28:23;6.20;;;1.90;;
1010;SDS011;494;48.744;10.106;2023-02-03T10:30:58;7.37;;;2.70;;
1010;SDS011;494;48.744;10.106;2023-02-03T10:33:30;8.83;;;3.77;;
1010;SDS011;494;48.744;10.106;2023-02-03T10:36:02;9.37;;;3.43;;
1010;SDS011;494;48.744;10.106;2023-02-03T10:38:49;7.33;;;2.17;;
1010;SDS011;494;48.744;10.106;2023-02-03T10:41:32;8.20;;;2.60;;
1010;SDS011;494;48.744;10.106;2023-02-03T10:44:04;6.50;;;2.17;;
1010;SDS011;494;48.744;10.106;2023-02-03T10:46:38;7.60;;;2.43;;
1010;SDS011;494;48.744;10.106;2023-02-03T10:49:09;7.27;;;2.17;;
1010;SDS011;494;48.744;10.106;2023-02-03T10:51:43;7.80;;;2.93;;
1010;SDS011;494;48.744;10.106;2023-02-03T10:54:28;6.07;;;2.07;;
1010;SDS011;494;48.744;10.106;2023-02-03T10:57:04;6.20;;;2.00;;
1010;SDS011;494;48.744;10.106;2023-02-03T10:59:40;6.10;;;1.80;;
1010;SDS011;494;48.744;10.106;2023-02-03T11:02:20;6.47;;;2.00;;
1010;SDS011;494;48.744;10.106;2023-02-03T11:07:38;9.30;;;3.30;;
1010;SDS011;494;48.744;10.106;2023-02-03T11:15:51;6.67;;;2.10;;
1010;SDS011;494;48.744;10.106;2023-02-03T11:18:25;6.43;;;2.13;;
1010;SDS011;494;48.744;10.106;2023-02-03T11:21:07;7.13;;;2.03;;
1010;SDS011;494;48.744;10.106;2023-02-03T11:23:47;6.57;;;1.77;;
1010;SDS011;494;48.744;10.106;2023-02-03T11:26:23;6.73;;;1.70;;
1010;SDS011;494;48.744;10.106;2023-02-03T11:28:58;6.10;;;1.70;;
1010;SDS011;494;48.744;10.106;2023-02-03T11:31:30;6.17;;;1.63;;
1010;SDS011;494;48.744;10.106;2023-02-03T11:34:02;6.27;;;2.00;;
1010;SDS011;494;48.744;10.106;2023-02-03T11:36:40;7.90;;;2.03;;
1010;SDS011;494;48.744;10.106;2023-02-03T11:39:10;6.17;;;2.13;;
1010;SDS011;494;48.744;10.106;2023-02-03T11:41:50;7.40;;;2.53;;
1010;SDS011;494;48.744;10.106;2023-02-03T11:44:23;5.93;;;1.80;;
1010;SDS011;494;48.744;10.106;2023-02-03T11:46:58;6.20;;;1.70;;
1010;SDS011;494;48.744;10.106;2023-02-03T11:49:47;6.77;;;1.80;;
1010;SDS011;494;48.744;10.106;2023-02-03T11:52:46;6.00;;;1.50;;
1010;SDS011;494;48.744;10.106;2023-02-03T11:55:27;6.67;;;2.20;;
1010;SDS011;494;48.744;10.106;2023-02-03T11:58:40;7.00;;;1.60;;
1010;SDS011;494;48.744;10.106;2023-02-03T12:02:07;5.70;;;1.50;;
1010;SDS011;494;48.744;10.106;2023-02-03T12:05:25;5.80;;;1.47;;
1010;SDS011;494;48.744;10.106;2023-02-03T12:08:19;5.80;;;1.23;;
1010;SDS011;494;48.744;10.106;2023-02-03T12:11:13;6.10;;;1.10;;
1010;SDS011;494;48.744;10.106;2023-02-03T12:14:03;5.20;;;1.17;;
1010;SDS011;494;48.744;10.106;2023-02-03T12:17:00;5.20;;;1.03;;
1010;SDS011;494;48.744;10.106;2023-02-03T12:19:54;6.70;;;1.23;;
1010;SDS011;494;48.744;10.106;2023-02-03T12:22:40;5.57;;;1.17;;
1010;SDS011;494;48.744;10.106;2023-02-03T12:25:25;5.77;;;1.17;;
1010;SDS011;494;48.744;10.106;2023-02-03T12:28:07;5.50;;;1.20;;
1010;SDS011;494;48.744;10.106;2023-02-03T12:31:01;5.60;;;1.30;;
1010;SDS011;494;48.744;10.106;2023-02-03T12:33:42;8.23;;;1.57;;
1010;SDS011;494;48.744;10.106;2023-02-03T12:36:17;5.60;;;1.40;;
1010;SDS011;494;48.744;10.106;2023-02-03T12:38:55;5.80;;;1.30;;
1010;SDS011;494;48.744;10.106;2023-02-03T12:41:36;5.30;;;1.10;;
1010;SDS011;494;48.744;10.106;2023-02-03T12:44:13;5.83;;;1.40;;
1010;SDS011;494;48.744;10.106;2023-02-03T12:46:49;6.27;;;1.20;;
1010;SDS011;494;48.744;10.106;2023-02-03T12:49:32;6.03;;;1.70;;
1010;SDS011;494;48.744;10.106;2023-02-03T12:52:11;5.80;;;1.20;;
1010;SDS011;494;48.744;10.106;2023-02-03T12:54:49;6.70;;;1.13;;
1010;SDS011;494;48.744;10.106;2023-02-03T12:57:28;5.60;;;1.10;;
1010;SDS011;494;48.744;10.106;2023-02-03T13:00:15;5.40;;;1.20;;
1010;SDS011;494;48.744;10.106;2023-02-03T13:05:58;7.47;;;1.30;;
1010;SDS011;494;48.744;10.106;2023-02-03T13:08:35;5.50;;;1.20;;
1010;SDS011;494;48.744;10.106;2023-02-03T13:11:14;5.77;;;1.27;;
1010;SDS011;494;48.744;10.106;2023-02-03T13:13:53;5.43;;;1.30;;
1010;SDS011;494;48.744;10.106;2023-02-03T13:16:29;6.03;;;2.00;;
1010;SDS011;494;48.744;10.106;2023-02-03T13:19:07;6.30;;;1.50;;
1010;SDS011;494;48.744;10.106;2023-02-03T13:21:48;5.93;;;1.60;;
1010;SDS011;494;48.744;10.106;2023-02-03T13:24:18;6.00;;;1.50;;
1010;SDS011;494;48.744;10.106;2023-02-03T13:36:29;6.00;;;1.50;;
1010;SDS011;494;48.744;10.106;2023-02-03T13:39:28;6.10;;;2.00;;
1010;SDS011;494;48.744;10.106;2023-02-03T13:42:16;5.57;;;1.43;;
1010;SDS011;494;48.744;10.106;2023-02-03T13:44:53;6.13;;;1.50;;
1010;SDS011;494;48.744;10.106;2023-02-03T13:47:30;7.07;;;1.60;;
1010;SDS011;494;48.744;10.106;2023-02-03T13:50:00;5.33;;;1.40;;
1010;SDS011;494;48.744;10.106;2023-02-03T13:52:40;7.03;;;2.00;;
1010;SDS011;494;48.744;10.106;2023-02-03T13:55:27;5.93;;;1.63;;
1010;SDS011;494;48.744;10.106;2023-02-03T13:58:03;5.40;;;1.30;;
1010;SDS011;494;48.744;10.106;2023-02-03T14:01:06;5.33;;;1.40;;
1010;SDS011;494;48.744;10.106;2023-02-03T14:04:03;5.73;;;1.30;;
1010;SDS011;494;48.744;10.106;2023-02-03T14:12:57;5.90;;;1.40;;
1010;SDS011;494;48.744;10.106;2023-02-03T14:15:29;5.47;;;1.40;;
1010;SDS011;494;48.744;10.106;2023-02-03T14:21:08;6.37;;;1.60;;
1010;SDS011;494;48.744;10.106;2023-02-03T14:23:45;5.77;;;1.63;;
1010;SDS011;494;48.744;10.106;2023-02-03T14:26:36;5.43;;;1.80;;
1010;SDS011;494;48.744;10.106;2023-02-03T14:29:10;6.10;;;1.70;;
1010;SDS011;494;48.744;10.106;2023-02-03T14:31:58;6.97;;;2.00;;
1010;SDS011;494;48.744;10.106;2023-02-03T14:34:31;6.40;;;1.73;;
1010;SDS011;494;48.744;10.106;2023-02-03T14:37:09;5.40;;;1.40;;
1010;SDS011;494;48.744;10.106;2023-02-03T14:40:02;5.63;;;1.40;;
1010;SDS011;494;48.744;10.106;2023-02-03T14:46:39;6.10;;;1.63;;
1010;SDS011;494;48.744;10.106;2023-02-03T14:49:28;6.00;;;1.47;;
1010;SDS011;494;48.744;10.106;2023-02-03T14:55:17;6.13;;;1.83;;
1010;SDS011;494;48.744;10.106;2023-02-03T14:58:16;6.60;;;1.80;;
1010;SDS011;494;48.744;10.106;2023-02-03T15:00:57;6.53;;;2.20;;
1010;SDS011;494;48.744;10.106;2023-02-03T15:03:26;6.27;;;1.57;;
1010;SDS011;494;48.744;10.106;2023-02-03T15:05:58;5.80;;;1.60;;
1010;SDS011;494;48.744;10.106;2023-02-03T15:08:29;6.50;;;1.90;;
1010;SDS011;494;48.744;10.106;2023-02-03T15:11:20;11.23;;;4.17;;
1010;SDS011;494;48.744;10.106;2023-02-03T15:14:19;8.10;;;3.13;;
1010;SDS011;494;48.744;10.106;2023-02-03T15:16:52;7.33;;;2.37;;
1010;SDS011;494;48.744;10.106;2023-02-03T15:22:29;6.63;;;2.40;;
1010;SDS011;494;48.744;10.106;2023-02-03T15:25:20;6.90;;;2.70;;
1010;SDS011;494;48.744;10.106;2023-02-03T15:31:03;8.30;;;3.23;;
1010;SDS011;494;48.744;10.106;2023-02-03T15:36:54;7.53;;;2.30;;
1010;SDS011;494;48.744;10.106;2023-02-03T15:39:33;7.90;;;2.63;;
1010;SDS011;494;48.744;10.106;2023-02-03T15:42:18;6.70;;;2.30;;
1010;SDS011;494;48.744;10.106;2023-02-03T15:44:55;8.03;;;3.27;;
1010;SDS011;494;48.744;10.106;2023-02-03T15:47:39;7.00;;;2.50;;
1010;SDS011;494;48.744;10.106;2023-02-03T15:50:20;6.10;;;1.97;;
1010;SDS011;494;48.744;10.106;2023-02-03T15:52:58;7.50;;;2.20;;
1010;SDS011;494;48.744;10.106;2023-02-03T15:55:36;6.73;;;2.50;;
1010;SDS011;494;48.744;10.106;2023-02-03T15:58:21;7.43;;;2.20;;
1010;SDS011;494;48.744;10.106;2023-02-03T16:01:01;10.77;;;2.37;;
1010;SDS011;494;48.744;10.106;2023-02-03T16:03:45;6.70;;;2.13;;
1010;SDS011;494;48.744;10.106;2023-02-03T16:06:20;6.33;;;2.00;;
1010;SDS011;494;48.744;10.106;2023-02-03T16:08:57;6.10;;;1.93;;
1010;SDS011;494;48.744;10.106;2023-02-03T16:11:27;5.73;;;1.67;;
1010;SDS011;494;48.744;10.106;2023-02-03T16:14:01;6.10;;;1.70;;
1010;SDS011;494;48.744;10.106;2023-02-03T16:17:03;7.43;;;2.00;;
1010;SDS011;494;48.744;10.106;2023-02-03T16:23:52;6.47;;;1.90;;
1010;SDS011;494;48.744;10.106;2023-02-03T16:26:27;5.43;;;1.40;;
1010;SDS011;494;48.744;10.106;2023-02-03T16:32:20;6.27;;;1.90;;
1010;SDS011;494;48.744;10.106;2023-02-03T16:35:13;6.63;;;2.07;;
1010;SDS011;494;48.744;10.106;2023-02-03T16:38:03;6.13;;;1.97;;
1010;SDS011;494;48.744;10.106;2023-02-03T16:41:00;8.57;;;3.10;;
1010;SDS011;494;48.744;10.106;2023-02-03T16:44:36;5.33;;;1.50;;
1010;SDS011;494;48.744;10.106;2023-02-03T16:47:46;5.70;;;1.70;;
1010;SDS011;494;48.744;10.106;2023-02-03T16:51:18;7.97;;;2.83;;
1010;SDS011;494;48.744;10.106;2023-02-03T17:12:57;5.57;;;1.60;;
1010;SDS011;494;48.744;10.106;2023-02-03T17:16:31;6.20;;;1.80;;
1010;SDS011;494;48.744;10.106;2023-02-03T17:49:20;6.80;;;2.30;;
1010;SDS011;494;48.744;10.106;2023-02-03T17:54:17;6.87;;;2.70;;
1010;SDS011;494;48.744;10.106;2023-02-03T17:57:36;6.80;;;2.70;;
1010;SDS011;494;48.744;10.106;2023-02-03T18:07:39;6.90;;;2.83;;
1010;SDS011;494;48.744;10.106;2023-02-03T18:10:46;7.60;;;3.27;;
1010;SDS011;494;48.744;10.106;2023-02-03T18:13:14;7.67;;;2.90;;
1010;SDS011;494;48.744;10.106;2023-02-03T18:15:43;8.27;;;3.40;;
1010;SDS011;494;48.744;10.106;2023-02-03T18:22:34;6.63;;;2.70;;
1010;SDS011;494;48.744;10.106;2023-02-03T18:25:36;7.60;;;2.90;;
1010;SDS011;494;48.744;10.106;2023-02-03T18:28:43;7.40;;;2.60;;
1010;SDS011;494;48.744;10.106;2023-02-03T18:31:35;6.97;;;2.40;;
1010;SDS011;494;48.744;10.106;2023-02-03T18:34:06;7.70;;;2.90;;
1010;SDS011;494;48.744;10.106;2023-02-03T18:41:57;7.57;;;3.27;;
1010;SDS011;494;48.744;10.106;2023-02-03T19:07:01;6.67;;;2.70;;
1010;SDS011;494;48.744;10.106;2023-02-03T19:26:21;6.40;;;2.00;;
1010;SDS011;494;48.744;10.106;2023-02-03T19:28:49;6.97;;;2.70;;
1010;SDS011;494;48.744;10.106;2023-02-03T19:31:19;5.97;;;2.33;;
1010;SDS011;494;48.744;10.106;2023-02-03T19:33:48;7.93;;;2.70;;
1010;SDS011;494;48.744;10.106;2023-02-03T19:36:22;6.50;;;2.30;;
1010;SDS011;494;48.744;10.106;2023-02-03T19:38:52;5.57;;;2.00;;
1010;SDS011;494;48.744;10.106;2023-02-03T19:41:22;7.13;;;2.67;;
1010;SDS011;494;48.744;10.106;2023-02-03T19:43:52;7.10;;;2.70;;
1010;SDS011;494;48.744;10.106;2023-02-03T19:46:21;6.47;;;2.20;;
1010;SDS011;494;48.744;10.106;2023-02-03T19:48:51;6.60;;;2.67;;
1010;SDS011;494;48.744;10.106;2023-02-03T19:51:19;6.00;;;2.00;;
1010;SDS011;494;48.744;10.106;2023-02-03T19:53:49;6.47;;;2.20;;
1010;SDS011;494;48.744;10.106;2023-02-03T19:56:19;7.10;;;2.23;;
1010;SDS011;494;48.744;10.106;2023-02-03T19:58:49;7.37;;;3.13;;
1010;SDS011;494;48.744;10.106;2023-02-03T20:01:19;6.80;;;2.40;;
1010;SDS011;494;48.744;10.106;2023-02-03T20:03:50;7.30;;;2.40;;
1010;SDS011;494;48.744;10.106;2023-02-03T20:06:19;5.67;;;1.90;;
1010;SDS011;494;48.744;10.106;2023-02-03T20:08:48;5.87;;;1.90;;
1010;SDS011;494;48.744;10.106;2023-02-03T20:11:18;10.13;;;4.33;;
1010;SDS011;494;48.744;10.106;2023-02-03T20:13:49;6.53;;;2.30;;
1010;SDS011;494;48.744;10.106;2023-02-03T20:16:17;5.93;;;2.00;;
1010;SDS011;494;48.744;10.106;2023-02-03T20:18:49;6.47;;;2.27;;
1010;SDS011;494;48.744;10.106;2023-02-03T20:21:18;7.73;;;2.53;;
1010;SDS011;494;48.744;10.106;2023-02-03T20:23:47;5.87;;;2.00;;
1010;SDS011;494;48.744;10.106;2023-02-03T20:26:16;7.10;;;2.50;;
1010;SDS011;494;48.744;10.106;2023-02-03T20:28:45;7.23;;;2.60;;
1010;SDS011;494;48.744;10.106;2023-02-03T20:31:16;6.10;;;2.20;;
1010;SDS011;494;48.744;10.106;2023-02-03T20:33:45;8.30;;;2.17;;
1010;SDS011;494;48.744;10.106;2023-02-03T20:36:13;6.10;;;2.23;;
1010;SDS011;494;48.744;10.106;2023-02-03T20:38:42;6.50;;;2.03;;
1010;SDS011;494;48.744;10.106;2023-02-03T20:41:12;5.87;;;1.90;;
1010;SDS011;494;48.744;10.106;2023-02-03T20:43:45;6.30;;;2.10;;
1010;SDS011;494;48.744;10.106;2023-02-03T20:46:16;6.50;;;2.53;;
1010;SDS011;494;48.744;10.106;2023-02-03T20:48:46;6.70;;;2.53;;
1010;SDS011;494;48.744;10.106;2023-02-03T20:51:15;6.60;;;2.30;;
1010;SDS011;494;48.744;10.106;2023-02-03T20:53:46;6.90;;;2.13;;
1010;SDS011;494;48.744;10.106;2023-02-03T20:56:17;6.50;;;2.27;;
1010;SDS011;494;48.744;10.106;2023-02-03T20:58:47;6.10;;;1.90;;
1010;SDS011;494;48.744;10.106;2023-02-03T21:01:18;7.53;;;2.77;;
1010;SDS011;494;48.744;10.106;2023-02-03T21:03:48;6.33;;;2.43;;
1010;SDS011;494;48.744;10.106;2023-02-03T21:06:37;6.57;;;2.47;;
1010;SDS011;494;48.744;10.106;2023-02-03T21:09:11;6.67;;;2.70;;
1010;SDS011;494;48.744;10.106;2023-02-03T21:11:42;7.20;;;2.90;;
1010;SDS011;494;48.744;10.106;2023-02-03T21:14:16;7.97;;;3.37;;
1010;SDS011;494;48.744;10.106;2023-02-03T21:16:50;8.27;;;3.97;;
1010;SDS011;494;48.744;10.106;2023-02-03T21:19:24;17.03;;;4.03;;
1010;SDS011;494;48.744;10.106;2023-02-03T21:21:56;8.47;;;4.00;;
1010;SDS011;494;48.744;10.106;2023-02-03T21:24:26;10.77;;;4.90;;
1010;SDS011;494;48.744;10.106;2023-02-03T21:26:58;10.33;;;5.20;;
1010;SDS011;494;48.744;10.106;2023-02-03T21:29:28;11.27;;;5.37;;
1010;SDS011;494;48.744;10.106;2023-02-03T21:32:01;11.27;;;5.10;;
1010;SDS011;494;48.744;10.106;2023-02-03T21:34:40;10.50;;;5.23;;
1010;SDS011;494;48.744;10.106;2023-02-03T21:37:15;10.37;;;5.20;;
1010;SDS011;494;48.744;10.106;2023-02-03T21:40:22;11.00;;;5.67;;
1010;SDS011;494;48.744;10.106;2023-02-03T21:42:54;12.23;;;6.10;;
1010;SDS011;494;48.744;10.106;2023-02-03T21:45:34;10.07;;;4.80;;
1010;SDS011;494;48.744;10.106;2023-02-03T21:48:25;11.27;;;5.53;;
1010;SDS011;494;48.744;10.106;2023-02-03T21:51:01;11.90;;;5.13;;
1010;SDS011;494;48.744;10.106;2023-02-03T21:53:31;10.57;;;4.80;;
1010;SDS011;494;48.744;10.106;2023-02-03T21:58:48;11.33;;;5.50;;
1010;SDS011;494;48.744;10.106;2023-02-03T22:01:19;10.40;;;5.20;;
1010;SDS011;494;48.744;10.106;2023-02-03T22:03:50;12.13;;;5.63;;
1010;SDS011;494;48.744;10.106;2023-02-03T22:06:21;10.17;;;5.00;;
1010;SDS011;494;48.744;10.106;2023-02-03T22:08:56;10.93;;;5.00;;
1010;SDS011;494;48.744;10.106;2023-02-03T22:11:26;12.20;;;5.07;;
1010;SDS011;494;48.744;10.106;2023-02-03T22:13:57;8.87;;;4.30;;
1010;SDS011;494;48.744;10.106;2023-02-03T22:16:26;10.47;;;5.03;;
1010;SDS011;494;48.744;10.106;2023-02-03T22:18:56;11.13;;;5.10;;
1010;SDS011;494;48.744;10.106;2023-02-03T22:21:25;9.30;;;4.30;;
1010;SDS011;494;48.744;10.106;2023-02-03T22:23:54;11.53;;;4.70;;
1010;SDS011;494;48.744;10.106;2023-02-03T22:26:23;11.63;;;6.00;;
1010;SDS011;494;48.744;10.106;2023-02-03T22:28:52;10.73;;;5.30;;
1010;SDS011;494;48.744;10.106;2023-02-03T22:31:20;10.37;;;5.70;;
1010;SDS011;494;48.744;10.106;2023-02-03T22:33:49;12.67;;;5.97;;
1010;SDS011;494;48.744;10.106;2023-02-03T22:36:20;12.40;;;6.20;;
1010;SDS011;494;48.744;10.106;2023-02-03T22:38:49;11.33;;;5.77;;
1010;SDS011;494;48.744;10.106;2023-02-03T22:41:18;11.37;;;5.70;;
1010;SDS011;494;48.744;10.106;2023-02-03T22:43:47;10.40;;;5.27;;
1010;SDS011;494;48.744;10.106;2023-02-03T22:46:16;12.47;;;6.40;;
1010;SDS011;494;48.744;10.106;2023-02-03T22:48:45;11.83;;;6.13;;
1010;SDS011;494;48.744;10.106;2023-02-03T22:51:14;13.00;;;6.40;;
1010;SDS011;494;48.744;10.106;2023-02-03T22:53:44;11.30;;;6.30;;
1010;SDS011;494;48.744;10.106;2023-02-03T22:56:13;12.43;;;6.50;;
1010;SDS011;494;48.744;10.106;2023-02-03T22:58:41;11.30;;;6.00;;
1010;SDS011;494;48.744;10.106;2023-02-03T23:01:12;12.23;;;5.83;;
1010;SDS011;494;48.744;10.106;2023-02-03T23:03:40;10.10;;;5.07;;
1010;SDS011;494;48.744;10.106;2023-02-03T23:06:09;9.03;;;4.80;;
1010;SDS011;494;48.744;10.106;2023-02-03T23:08:38;11.20;;;5.70;;
1010;SDS011;494;48.744;10.106;2023-02-03T23:11:08;9.90;;;5.30;;
1010;SDS011;494;48.744;10.106;2023-02-03T23:13:37;8.77;;;4.70;;
1010;SDS011;494;48.744;10.106;2023-02-03T23:16:07;9.10;;;4.20;;
1010;SDS011;494;48.744;10.106;2023-02-03T23:18:36;8.73;;;3.97;;
1010;SDS011;494;48.744;10.106;2023-02-03T23:21:04;9.63;;;4.40;;
1010;SDS011;494;48.744;10.106;2023-02-03T23:23:33;9.00;;;4.20;;
1010;SDS011;494;48.744;10.106;2023-02-03T23:26:02;8.40;;;3.93;;
1010;SDS011;494;48.744;10.106;2023-02-03T23:28:32;9.87;;;4.63;;
1010;SDS011;494;48.744;10.106;2023-02-03T23:31:00;8.93;;;4.40;;
1010;SDS011;494;48.744;10.106;2023-02-03T23:33:29;9.00;;;4.13;;
1010;SDS011;494;48.744;10.106;2023-02-03T23:35:58;10.70;;;5.00;;
1010;SDS011;494;48.744;10.106;2023-02-03T23:38:25;9.23;;;4.67;;
1010;SDS011;494;48.744;10.106;2023-02-03T23:40:54;11.23;;;5.90;;
1010;SDS011;494;48.744;10.106;2023-02-03T23:43:23;10.37;;;4.30;;
1010;SDS011;494;48.744;10.106;2023-02-03T23:45:53;12.00;;;5.53;;
1010;SDS011;494;48.744;10.106;2023-02-03T23:48:21;8.50;;;3.57;;
1010;SDS011;494;48.744;10.106;2023-02-03T23:50:50;9.60;;;4.07;;
1010;SDS011;494;48.744;10.106;2023-02-03T23:53:19;8.80;;;4.50;;
1010;SDS011;494;48.744;10.106;2023-02-03T23:55:48;9.80;;;4.67;;
1010;SDS011;494;48.744;10.106;2023-02-03T23:58:17;12.07;;;5.50;;
